Time;durP1;ratioP1;P1;durP2;ratioP2;P2;SDS_P1;SDS_P2;PMS_P1;PMS_P2;Temp;Humidity;BMP_temperature;BMP_pressure;BME280_temperature;BME280_humidity;BME280_pressure;Samples;Min_cycle;Max_cycle;Signal;HPM_P1;HPM_P2
2022/02/27 00:02:00;;;;;;;12.65;8.27;;;;;;;5.81;59.01;101812.31;10323366;28;20501;-63
2022/02/27 00:07:02;;;;;;;12.80;8.30;;;;;;;5.73;59.39;101809.09;10313070;28;20054;-65
2022/02/27 00:12:04;;;;;;;15.52;8.95;;;;;;;5.64;59.50;101816.44;10315665;28;20077;-64
2022/02/27 00:17:05;;;;;;;17.40;9.45;;;;;;;5.58;59.33;101821.91;10320097;28;20133;-64
2022/02/27 00:22:07;;;;;;;12.98;7.82;;;;;;;5.42;59.68;101810.16;10316338;28;20042;-63
2022/02/27 00:27:08;;;;;;;9.27;6.75;;;;;;;5.46;60.21;101822.34;10315710;28;20050;-63
2022/02/27 00:32:09;;;;;;;12.10;7.30;;;;;;;5.25;60.41;101800.16;10316706;28;20061;-65
2022/02/27 00:37:11;;;;;;;9.15;6.13;;;;;;;5.21;60.54;101802.06;10355510;28;20054;-64
2022/02/27 00:42:12;;;;;;;11.15;5.60;;;;;;;5.21;60.64;101802.06;10360608;28;20141;-63
2022/02/27 00:47:14;;;;;;;12.52;6.38;;;;;;;5.13;60.78;101809.34;10357498;28;20068;-64
2022/02/27 00:52:21;;;;;;;13.38;5.78;;;;;;;5.06;61.05;101813.09;10321139;28;20046;-63
2022/02/27 00:57:23;;;;;;;10.75;6.00;;;;;;;5.03;61.05;101795.63;10313632;28;20042;-64
2022/02/27 01:02:25;;;;;;;9.57;5.65;;;;;;;4.88;60.69;101778.50;10317705;28;20549;-63
2022/02/27 01:07:27;;;;;;;6.55;4.80;;;;;;;4.82;60.93;101776.06;10317338;28;20827;-64
2022/02/27 01:12:28;;;;;;;8.60;4.40;;;;;;;4.92;60.84;101795.97;10317487;28;20136;-63
2022/02/27 01:17:30;;;;;;;8.80;5.03;;;;;;;4.85;60.74;101783.88;10315996;28;20058;-63
2022/02/27 01:22:32;;;;;;;11.07;5.88;;;;;;;4.91;61.00;101793.38;10312302;28;20553;-64
2022/02/27 01:27:34;;;;;;;7.80;5.20;;;;;;;4.86;61.20;101787.38;10315415;28;20133;-64
2022/02/27 01:32:37;;;;;;;8.25;4.10;;;;;;;4.76;61.28;101792.94;10315713;28;20553;-64
2022/02/27 01:37:39;;;;;;;8.48;4.97;;;;;;;4.72;61.13;101772.00;10310736;28;20045;-64
2022/02/27 01:42:40;;;;;;;11.82;4.75;;;;;;;4.84;60.71;101783.94;10301929;28;20141;-64
2022/02/27 01:47:42;;;;;;;7.38;4.30;;;;;;;4.81;60.78;101787.50;10310020;28;20069;-63
2022/02/27 01:52:43;;;;;;;5.97;3.88;;;;;;;4.76;60.74;101778.91;10315691;28;20511;-63
2022/02/27 01:57:45;;;;;;;8.23;4.28;;;;;;;4.62;60.77;101757.34;10310360;28;20058;-62
2022/02/27 02:02:47;;;;;;;6.80;4.60;;;;;;;4.63;61.03;101780.19;10313024;28;20160;-61
2022/02/27 02:07:49;;;;;;;6.07;4.22;;;;;;;4.67;60.94;101773.88;10317481;28;20057;-62
2022/02/27 02:12:50;;;;;;;5.40;3.70;;;;;;;4.69;60.77;101758.91;10326290;28;20481;-63
2022/02/27 02:17:52;;;;;;;10.32;4.10;;;;;;;4.67;61.02;101763.34;10318262;28;20762;-63
2022/02/27 02:22:53;;;;;;;8.38;3.95;;;;;;;4.66;60.93;101772.19;10306923;28;20042;-63
2022/02/27 02:27:55;;;;;;;9.45;4.57;;;;;;;4.56;60.82;101755.78;10310840;28;20232;-63
2022/02/27 02:32:58;;;;;;;9.15;3.05;;;;;;;4.53;60.71;101748.81;10312098;28;20050;-62
2022/02/27 02:37:59;;;;;;;5.15;3.72;;;;;;;4.67;60.68;101758.06;10309050;28;20169;-63
2022/02/27 02:43:01;;;;;;;5.18;2.78;;;;;;;4.63;60.62;101756.47;10309247;28;20054;-63
2022/02/27 02:48:02;;;;;;;7.57;3.45;;;;;;;4.52;60.41;101733.03;10316080;28;20129;-63
2022/02/27 02:53:04;;;;;;;5.55;3.38;;;;;;;4.59;60.84;101751.28;10317581;28;20061;-63
2022/02/27 02:58:05;;;;;;;6.22;3.45;;;;;;;4.59;60.51;101746.00;10319691;28;20531;-62
2022/02/27 03:03:06;;;;;;;7.30;3.58;;;;;;;4.47;60.74;101745.50;10323166;28;20516;-62
2022/02/27 03:08:08;;;;;;;8.30;3.97;;;;;;;4.42;60.60;101749.16;10316745;28;20095;-62
2022/02/27 03:13:09;;;;;;;6.82;3.90;;;;;;;4.38;60.52;101749.28;10321300;28;20535;-62
2022/02/27 03:18:11;;;;;;;6.55;3.55;;;;;;;4.34;60.46;101751.16;10318694;28;20060;-62
2022/02/27 03:23:12;;;;;;;6.75;3.33;;;;;;;4.24;60.68;101734.75;10319935;28;20050;-62
2022/02/27 03:28:14;;;;;;;8.05;4.20;;;;;;;4.18;60.60;101734.94;10322303;28;20046;-62
2022/02/27 03:33:15;;;;;;;9.23;3.90;;;;;;;4.18;60.71;101734.94;10314227;28;20050;-62
2022/02/27 03:38:18;;;;;;;8.82;3.60;;;;;;;4.17;60.51;101733.22;10321195;28;20054;-65
2022/02/27 03:43:19;;;;;;;5.82;3.72;;;;;;;4.23;60.36;101737.44;10317605;28;20133;-63
2022/02/27 03:48:21;;;;;;;7.28;3.53;;;;;;;4.04;60.11;101718.69;10319864;28;20046;-63
2022/02/27 03:53:22;;;;;;;7.13;3.47;;;;;;;4.27;59.98;101738.22;10319442;28;20050;-62
2022/02/27 03:58:24;;;;;;;8.98;4.55;;;;;;;4.18;60.05;101742.84;10314376;28;20060;-62
2022/02/27 04:03:25;;;;;;;7.53;4.10;;;;;;;4.16;59.96;101742.03;10314910;28;20060;-63
2022/02/27 04:08:27;;;;;;;6.65;3.97;;;;;;;3.86;59.67;101710.41;10318783;28;20137;-62
2022/02/27 04:13:28;;;;;;;7.93;3.55;;;;;;;4.09;59.79;101758.09;10318453;28;20153;-62
2022/02/27 04:18:29;;;;;;;9.40;3.60;;;;;;;4.05;59.35;101754.66;10317648;28;20497;-62
2022/02/27 04:23:31;;;;;;;6.13;3.75;;;;;;;3.96;59.36;101736.50;10319883;28;20048;-63
2022/02/27 04:28:32;;;;;;;6.30;3.20;;;;;;;3.93;59.29;101729.53;10318970;28;20112;-63
2022/02/27 04:33:34;;;;;;;7.72;3.50;;;;;;;3.97;59.26;101752.25;10313986;28;20482;-62
2022/02/27 04:38:35;;;;;;;7.78;3.30;;;;;;;3.92;59.44;101745.38;10311247;28;20137;-63
2022/02/27 04:43:37;;;;;;;5.20;3.35;;;;;;;3.86;59.17;101735.91;10313806;28;20133;-62
2022/02/27 04:48:39;;;;;;;8.70;3.95;;;;;;;3.91;59.30;101741.91;10314832;28;20061;-62
2022/02/27 04:53:41;;;;;;;5.55;3.53;;;;;;;3.87;59.58;101743.78;10316661;28;20063;-63
2022/02/27 04:58:42;;;;;;;4.07;3.60;;;;;;;3.85;59.47;101750.84;10325645;28;20554;-62
2022/02/27 05:03:44;;;;;;;4.82;3.78;;;;;;;3.83;59.67;101749.16;10309299;28;20087;-63
2022/02/27 05:08:45;;;;;;;7.55;3.80;;;;;;;3.56;59.42;101703.38;10312403;28;20424;-62
2022/02/27 05:13:46;;;;;;;5.47;3.13;;;;;;;3.70;59.51;101749.50;10309990;28;20121;-63
2022/02/27 05:18:48;;;;;;;7.78;4.07;;;;;;;3.77;59.72;101759.84;10311517;28;20060;-62
2022/02/27 05:23:50;;;;;;;7.25;4.28;;;;;;;3.80;59.82;101757.13;10313290;28;20049;-63
2022/02/27 05:28:51;;;;;;;6.43;4.22;;;;;;;3.71;60.01;101766.19;10312519;28;20544;-62
2022/02/27 05:33:52;;;;;;;5.53;3.90;;;;;;;3.75;59.96;101775.69;10312416;28;20975;-64
2022/02/27 05:38:54;;;;;;;6.38;3.40;;;;;;;3.69;60.45;101773.25;10312229;28;20137;-61
2022/02/27 05:43:56;;;;;;;5.78;3.90;;;;;;;3.67;60.34;101775.06;10311106;28;20196;-63
2022/02/27 05:48:57;;;;;;;5.22;3.63;;;;;;;3.70;60.68;101790.78;10305785;28;20054;-61
2022/02/27 05:53:58;;;;;;;7.18;3.25;;;;;;;3.73;60.68;101795.97;10312485;28;20442;-62
2022/02/27 05:59:00;;;;;;;7.10;4.47;;;;;;;3.66;61.15;101799.66;10310797;28;20050;-63
2022/02/27 06:04:01;;;;;;;7.43;4.03;;;;;;;3.43;61.03;101759.00;10308328;28;20137;-63
2022/02/27 06:09:03;;;;;;;7.45;3.80;;;;;;;3.60;61.19;101791.94;10305442;28;20405;-65
2022/02/27 06:14:04;;;;;;;7.50;4.10;;;;;;;3.61;61.33;101807.69;10314951;28;20644;-64
2022/02/27 06:19:06;;;;;;;8.05;4.60;;;;;;;3.46;61.65;101787.03;10313600;28;20149;-63
2022/02/27 06:24:07;;;;;;;12.40;5.68;;;;;;;3.58;61.55;101813.03;10299218;28;20064;-61
2022/02/27 06:29:08;;;;;;;5.47;4.03;;;;;;;3.51;61.69;101816.72;10315470;28;20075;-63
2022/02/27 06:34:12;;;;;;;9.63;4.50;;;;;;;3.57;61.99;101826.25;10312745;28;20417;-61
2022/02/27 06:39:14;;;;;;;7.63;4.13;;;;;;;3.65;61.87;101830.41;10324905;28;20736;-63
2022/02/27 06:44:15;;;;;;;8.32;4.38;;;;;;;3.77;61.95;101831.84;10301852;28;20058;-62
2022/02/27 06:49:17;;;;;;;9.85;4.70;;;;;;;3.92;61.14;101821.78;10302513;28;20601;-67
2022/02/27 06:54:22;;;;;;;10.95;4.80;;;;;;;4.00;61.09;101840.91;10306831;28;20046;-61
2022/02/27 06:59:23;;;;;;;8.70;4.97;;;;;;;4.14;61.29;101848.41;10306445;28;20379;-61
2022/02/27 07:04:24;;;;;;;7.38;5.15;;;;;;;4.27;60.83;101838.41;10300593;28;20690;-61
2022/02/27 07:09:26;;;;;;;7.97;4.80;;;;;;;4.39;60.66;101844.16;10302144;28;20050;-63
2022/02/27 07:14:27;;;;;;;10.32;5.50;;;;;;;4.56;60.20;101843.69;10303203;28;20049;-64
2022/02/27 07:19:29;;;;;;;8.27;4.57;;;;;;;4.71;59.47;101844.13;10301145;28;20191;-63
2022/02/27 07:24:30;;;;;;;10.82;4.95;;;;;;;4.91;59.64;101857.56;10297272;28;20046;-61
2022/02/27 07:29:32;;;;;;;9.82;5.53;;;;;;;5.09;58.98;101850.00;10296592;28;20288;-63
2022/02/27 07:34:34;;;;;;;9.93;5.13;;;;;;;5.30;58.16;101854.56;10298518;28;20124;-62
2022/02/27 07:39:35;;;;;;;10.30;5.38;;;;;;;5.42;58.17;101852.41;10300642;28;20057;-62
2022/02/27 07:44:37;;;;;;;10.88;5.38;;;;;;;5.73;56.93;101859.31;10308282;28;20093;-63
2022/02/27 07:49:39;;;;;;;10.20;5.20;;;;;;;5.93;56.24;101863.88;10305343;28;20046;-62
2022/02/27 07:54:40;;;;;;;9.57;5.63;;;;;;;6.05;55.54;101858.22;10315664;28;20061;-61
2022/02/27 07:59:42;;;;;;;7.63;5.07;;;;;;;6.24;54.75;101858.41;10306479;28;20129;-61
2022/02/27 08:04:43;;;;;;;10.38;5.50;;;;;;;6.43;54.09;101863.03;10310541;28;20050;-60
2022/02/27 08:09:45;;;;;;;8.30;4.70;;;;;;;6.55;54.66;101857.25;10303731;28;20054;-60
2022/02/27 08:14:47;;;;;;;10.25;5.43;;;;;;;6.31;54.19;101841.38;10313980;28;20128;-61
2022/02/27 08:19:48;;;;;;;10.52;6.30;;;;;;;6.70;54.18;101867.25;10307614;28;20100;-62
2022/02/27 08:24:51;;;;;;;9.57;5.10;;;;;;;6.96;53.28;101861.88;10305245;28;20053;-62
2022/02/27 08:29:53;;;;;;;11.38;5.15;;;;;;;7.18;52.78;101868.03;10308443;28;20753;-62
2022/02/27 08:34:54;;;;;;;8.18;4.88;;;;;;;6.92;53.30;101866.44;10306325;28;20050;-65
2022/02/27 08:39:56;;;;;;;9.95;5.32;;;;;;;7.19;53.11;101868.88;10309811;28;20204;-62
2022/02/27 08:44:58;;;;;;;9.45;6.00;;;;;;;7.40;52.17;101883.91;10303294;28;20057;-62
2022/02/27 08:49:59;;;;;;;8.82;5.93;;;;;;;7.71;51.48;101877.31;10302034;28;20858;-62
2022/02/27 08:55:01;;;;;;;10.02;5.80;;;;;;;7.75;51.05;101868.31;10323033;28;20129;-62
2022/02/27 09:00:06;;;;;;;8.52;5.50;;;;;;;8.31;49.72;101872.03;10304285;28;20161;-64
2022/02/27 09:05:08;;;;;;;11.00;6.05;;;;;;;8.34;50.03;101872.84;10313486;28;20050;-63
2022/02/27 09:10:12;;;;;;;6.75;5.13;;;;;;;8.79;48.07;101856.59;10304316;28;20052;-64
2022/02/27 09:15:14;;;;;;;10.02;4.85;;;;;;;9.27;46.34;101885.34;10305995;28;20247;-64
2022/02/27 09:20:15;;;;;;;6.80;4.18;;;;;;;9.69;44.86;101870.84;10302883;28;20613;-64
2022/02/27 09:25:17;;;;;;;6.65;4.53;;;;;;;10.07;44.43;101881.28;10303892;28;20585;-62
2022/02/27 09:30:38;;;;;;;8.15;4.00;;;;;;;10.42;42.52;101873.28;10298810;28;20480;-60
2022/02/27 09:35:40;;;;;;;5.70;4.05;;;;;;;10.81;42.12;101855.16;10301241;28;20103;-60
2022/02/27 09:40:42;;;;;;;6.70;4.28;;;;;;;10.95;41.64;101856.09;10310742;28;20647;-62
2022/02/27 09:45:50;;;;;;;8.20;4.95;;;;;;;11.49;41.32;101846.81;10318668;28;20072;-61
2022/02/27 09:50:51;;;;;;;6.47;4.50;;;;;;;11.95;39.19;101852.09;10309038;28;20050;-61
2022/02/27 09:55:53;;;;;;;8.65;4.70;;;;;;;12.09;39.33;101845.06;10306115;28;20062;-63
2022/02/27 10:00:54;;;;;;;5.57;3.95;;;;;;;12.48;37.37;101830.19;10303834;28;20905;-63
2022/02/27 10:06:04;;;;;;;7.75;4.30;;;;;;;13.26;35.84;101834.91;10305070;28;20073;-61
2022/02/27 10:11:09;;;;;;;6.32;4.43;;;;;;;14.25;35.36;101837.06;10302072;28;20057;-63
2022/02/27 10:16:16;;;;;;;6.05;4.38;;;;;;;17.49;29.34;101822.78;10300980;28;20050;-63
2022/02/27 10:21:37;;;;;;;8.52;4.45;;;;;;;19.92;25.89;101811.84;10312154;28;20057;-62
2022/02/27 10:26:52;;;;;;;6.57;3.53;;;;;;;20.46;24.00;101820.16;10304413;28;20138;-63
2022/02/27 10:31:56;;;;;;;4.78;3.95;;;;;;;18.82;25.84;101808.47;10306951;28;20136;-64
2022/02/27 10:37:06;;;;;;;7.18;3.97;;;;;;;17.74;27.91;101812.56;10302654;28;20050;-62
2022/02/27 10:42:15;;;;;;;5.90;3.75;;;;;;;17.90;27.78;101808.59;10301403;28;20050;-63
2022/02/27 10:47:43;;;;;;;6.28;3.72;;;;;;;18.12;27.23;101807.56;10306414;28;20540;-63
2022/02/27 10:52:46;;;;;;;8.13;3.70;;;;;;;21.34;23.26;101787.09;10296638;28;20149;-63
2022/02/27 10:57:53;;;;;;;5.32;4.22;;;;;;;21.67;22.29;101792.78;10299672;28;20065;-62
2022/02/27 11:02:59;;;;;;;4.97;3.70;;;;;;;23.10;20.69;101763.13;10310964;28;20064;-64
2022/02/27 11:08:05;;;;;;;5.00;3.08;;;;;;;25.39;17.66;101771.34;10311094;28;20138;-63
2022/02/27 11:13:09;;;;;;;3.28;2.30;;;;;;;26.44;15.72;101754.97;10316254;28;20571;-63
2022/02/27 11:18:10;;;;;;;3.65;2.30;;;;;;;27.85;14.95;101760.63;10305140;28;20328;-63
2022/02/27 11:23:12;;;;;;;4.47;2.80;;;;;;;28.84;13.61;101760.38;10308801;28;20541;-63
2022/02/27 11:28:16;;;;;;;4.38;2.70;;;;;;;29.09;13.44;101758.75;10307124;28;21558;-62
2022/02/27 11:33:19;;;;;;;3.42;3.13;;;;;;;29.23;13.27;101751.38;10317952;28;20041;-62
2022/02/27 11:38:33;;;;;;;4.47;3.17;;;;;;;28.79;13.07;101743.75;10313567;28;20053;-61
2022/02/27 11:43:51;;;;;;;4.85;3.10;;;;;;;28.80;12.81;101740.78;10305580;28;20042;-63
2022/02/27 11:49:00;;;;;;;7.60;7.00;;;;;;;28.69;12.85;101725.81;10309822;28;20123;-62
2022/02/27 11:54:06;;;;;;;4.28;3.50;;;;;;;29.91;12.15;101720.03;10313251;28;20169;-63
2022/02/27 11:59:11;;;;;;;4.43;2.50;;;;;;;31.53;11.38;101726.13;10340363;28;20050;-64
2022/02/27 12:04:19;;;;;;;2.90;2.13;;;;;;;32.33;10.55;101714.16;10314108;28;20184;-64
2022/02/27 12:09:20;;;;;;;3.33;1.80;;;;;;;32.68;10.41;101709.84;10316943;28;20050;-62
2022/02/27 12:14:22;;;;;;;4.15;2.63;;;;;;;33.21;9.90;101700.72;10308519;28;20161;-62
2022/02/27 12:19:30;;;;;;;3.55;1.92;;;;;;;33.46;9.41;101702.34;10308067;28;20076;-64
2022/02/27 12:24:32;;;;;;;3.13;2.15;;;;;;;33.47;9.60;101704.88;10354913;28;20046;-62
2022/02/27 12:29:48;;;;;;;4.30;2.13;;;;;;;31.95;10.49;101709.78;10307006;28;20081;-63
2022/02/27 12:34:52;;;;;;;4.45;2.60;;;;;;;32.58;10.11;101693.88;10308599;28;20121;-62
2022/02/27 12:39:54;;;;;;;4.32;2.03;;;;;;;32.60;9.73;101698.06;10318877;28;20596;-64
2022/02/27 12:44:55;;;;;;;4.28;1.75;;;;;;;33.96;8.97;101681.59;10304551;28;20527;-63
2022/02/27 12:50:16;;;;;;;2.60;1.65;;;;;;;34.56;8.90;101676.66;10304998;28;20068;-63
2022/02/27 12:55:19;;;;;;;2.00;1.42;;;;;;;34.28;8.77;101678.38;10315071;28;20133;-64
2022/02/27 13:00:24;;;;;;;4.28;2.28;;;;;;;33.88;8.61;101665.44;10304467;28;20056;-64
2022/02/27 13:05:31;;;;;;;2.55;1.65;;;;;;;33.65;9.17;101669.94;10311129;28;20082;-63
2022/02/27 13:10:33;;;;;;;2.65;1.67;;;;;;;33.91;8.66;101656.66;10312117;28;20050;-64
2022/02/27 13:15:35;;;;;;;3.30;1.80;;;;;;;34.38;8.34;101650.94;10302302;28;20140;-62
2022/02/27 13:20:36;;;;;;;2.60;1.67;;;;;;;34.89;8.05;101650.97;10309468;28;20137;-62
2022/02/27 13:25:38;;;;;;;3.15;2.22;;;;;;;33.92;8.80;101652.81;10316730;28;20677;-63
2022/02/27 13:30:39;;;;;;;2.88;1.95;;;;;;;34.06;8.46;101647.84;10311390;28;20054;-64
2022/02/27 13:35:43;;;;;;;2.58;1.90;;;;;;;34.20;8.79;101637.31;10310363;28;20397;-64
2022/02/27 13:40:47;;;;;;;2.30;1.48;;;;;;;34.79;8.31;101623.16;10316448;28;20145;-64
2022/02/27 13:45:51;;;;;;;3.10;1.75;;;;;;;34.52;8.68;101626.56;10315629;28;20054;-64
2022/02/27 13:50:52;;;;;;;3.15;1.83;;;;;;;35.36;8.24;101633.94;10316060;28;20064;-64
2022/02/27 13:55:54;;;;;;;2.70;2.20;;;;;;;35.09;7.86;101633.81;10315311;28;20200;-64
2022/02/27 14:01:03;;;;;;;2.17;1.73;;;;;;;34.98;8.23;101626.47;10309475;28;20217;-64
2022/02/27 14:06:18;;;;;;;3.22;1.63;;;;;;;33.87;8.54;101634.22;10318553;28;20045;-65
2022/02/27 14:11:24;;;;;;;2.58;1.60;;;;;;;33.52;8.78;101626.03;10315047;28;20057;-65
2022/02/27 14:16:34;;;;;;;2.15;1.67;;;;;;;33.02;9.11;101625.50;10308372;28;20041;-65
2022/02/27 14:21:42;;;;;;;2.90;1.52;;;;;;;33.22;8.84;101616.03;10306518;28;20101;-63
2022/02/27 14:26:55;;;;;;;2.95;1.90;;;;;;;33.08;9.13;101605.22;10313500;28;20165;-63
2022/02/27 14:31:57;;;;;;;2.03;1.48;;;;;;;33.87;8.84;101606.63;10312909;28;20046;-63
2022/02/27 14:36:58;;;;;;;3.53;1.63;;;;;;;34.21;8.43;101600.31;10311567;28;20057;-63
2022/02/27 14:42:00;;;;;;;3.00;1.50;;;;;;;33.65;9.03;101610.03;10317338;28;20060;-63
2022/02/27 14:47:02;;;;;;;3.03;1.50;;;;;;;33.27;8.66;101602.34;10318843;28;20123;-64
2022/02/27 14:52:06;;;;;;;2.58;1.63;;;;;;;32.32;9.38;101595.94;10317838;28;20504;-63
2022/02/27 14:57:07;;;;;;;3.17;1.50;;;;;;;32.08;9.40;101601.34;10316415;28;20078;-64
2022/02/27 15:02:09;;;;;;;2.55;1.23;;;;;;;30.65;10.49;101594.09;10323646;28;20054;-63
2022/02/27 15:07:11;;;;;;;3.08;1.77;;;;;;;27.49;12.22;101589.41;10315872;28;20054;-63
2022/02/27 15:12:12;;;;;;;2.28;1.55;;;;;;;24.21;14.67;101592.88;10315440;28;20045;-64
2022/02/27 15:17:14;;;;;;;2.40;1.58;;;;;;;20.35;18.23;101588.66;10316251;28;20505;-62
2022/02/27 15:22:15;;;;;;;2.60;1.98;;;;;;;18.55;19.97;101598.81;10319588;28;20060;-62
2022/02/27 15:27:17;;;;;;;2.00;1.42;;;;;;;17.74;20.94;101593.59;10318864;28;20567;-62
2022/02/27 15:32:18;;;;;;;4.38;2.45;;;;;;;16.43;22.21;101586.94;10320621;28;20050;-62
2022/02/27 15:37:19;;;;;;;4.03;2.80;;;;;;;15.73;23.10;101591.75;10345902;28;20097;-61
2022/02/27 15:42:21;;;;;;;4.43;2.53;;;;;;;14.62;24.43;101584.38;10320341;28;20137;-64
2022/02/27 15:47:22;;;;;;;5.07;4.32;;;;;;;14.58;25.20;101604.31;10318928;28;20047;-61
2022/02/27 15:52:24;;;;;;;3.80;2.10;;;;;;;14.15;25.81;101595.00;10319550;28;20118;-62
2022/02/27 15:57:26;;;;;;;4.28;2.83;;;;;;;13.85;26.26;101601.63;10314050;28;20815;-63
2022/02/27 16:02:27;;;;;;;3.17;2.38;;;;;;;13.28;26.41;101578.94;10316732;28;20156;-61
2022/02/27 16:07:29;;;;;;;2.95;1.90;;;;;;;12.86;27.32;101591.69;10320814;28;20111;-62
2022/02/27 16:12:31;;;;;;;2.88;2.15;;;;;;;12.69;28.16;101603.53;10315201;28;20054;-62
2022/02/27 16:17:33;;;;;;;4.07;2.00;;;;;;;12.50;28.34;101591.41;10321398;28;20058;-62
2022/02/27 16:22:36;;;;;;;3.70;2.85;;;;;;;12.01;28.88;101600.88;10317949;28;20078;-63
2022/02/27 16:27:37;;;;;;;2.42;2.13;;;;;;;11.78;29.47;101609.47;10312673;28;20072;-63
2022/02/27 16:32:39;;;;;;;4.43;2.10;;;;;;;11.05;30.82;101595.31;10320518;28;20056;-63
2022/02/27 16:37:40;;;;;;;3.42;1.92;;;;;;;11.34;30.50;101619.31;10312267;28;20513;-63
2022/02/27 16:42:43;;;;;;;2.40;1.98;;;;;;;11.24;30.79;101627.00;10308334;28;20050;-63
2022/02/27 16:47:44;;;;;;;3.97;1.90;;;;;;;10.92;31.23;101623.66;10315673;28;20164;-63
2022/02/27 16:52:46;;;;;;;2.58;2.00;;;;;;;10.88;31.25;101635.44;10317667;28;20469;-65
2022/02/27 16:57:47;;;;;;;10.90;10.30;;;;;;;10.67;31.88;101648.22;10337628;28;20060;-61
2022/02/27 17:02:49;;;;;;;3.10;2.10;;;;;;;10.18;32.64;101644.75;10343065;28;20049;-61
2022/02/27 17:07:51;;;;;;;3.42;1.90;;;;;;;9.89;33.09;101635.72;10336762;28;20135;-63
2022/02/27 17:12:53;;;;;;;3.33;1.80;;;;;;;10.01;33.25;101647.50;10342631;28;20193;-62
2022/02/27 17:17:54;;;;;;;3.30;2.13;;;;;;;10.01;33.15;101661.66;10338241;28;20613;-62
2022/02/27 17:22:56;;;;;;;3.10;2.33;;;;;;;10.04;33.36;101668.59;10339762;28;21085;-64
2022/02/27 17:27:57;;;;;;;4.15;2.65;;;;;;;9.71;34.16;101677.50;10337345;28;20064;-65
2022/02/27 17:32:58;;;;;;;3.45;2.65;;;;;;;9.49;34.95;101676.00;10315692;28;20045;-64
2022/02/27 17:38:00;;;;;;;5.50;2.70;;;;;;;9.35;34.90;101683.81;10303352;28;20052;-63
2022/02/27 17:43:02;;;;;;;4.22;2.97;;;;;;;9.10;36.29;101695.75;10310398;28;20509;-61
2022/02/27 17:48:04;;;;;;;6.78;3.47;;;;;;;9.14;35.75;101670.75;10306453;28;20165;-62
2022/02/27 17:53:05;;;;;;;5.35;3.78;;;;;;;8.81;37.10;101698.09;10308989;28;20574;-61
2022/02/27 17:58:07;;;;;;;5.80;3.60;;;;;;;8.88;36.62;101673.88;10314472;28;20461;-62
2022/02/27 18:03:12;;;;;;;5.45;3.45;;;;;;;9.01;36.92;101701.53;10311939;28;20909;-62
2022/02/27 18:08:15;;;;;;;5.22;3.42;;;;;;;9.01;37.60;101696.22;10313201;28;20339;-62
2022/02/27 18:13:19;;;;;;;6.75;4.85;;;;;;;8.97;37.21;101684.88;10301898;28;20076;-62
2022/02/27 18:18:21;;;;;;;7.78;4.68;;;;;;;8.86;37.39;101668.66;10310366;28;20045;-63
2022/02/27 18:23:23;;;;;;;7.07;4.97;;;;;;;8.92;37.00;101688.72;10308155;28;20504;-62
2022/02/27 18:28:24;;;;;;;5.78;4.70;;;;;;;8.88;37.41;101695.13;10301873;28;20056;-62
2022/02/27 18:33:26;;;;;;;4.88;3.53;;;;;;;8.78;37.62;101684.97;10309504;28;20099;-62
2022/02/27 18:38:28;;;;;;;5.75;4.10;;;;;;;8.63;37.67;101681.28;10308262;28;21281;-62
2022/02/27 18:43:30;;;;;;;4.78;3.20;;;;;;;8.65;37.50;101686.50;10303773;28;20064;-62
2022/02/27 18:48:32;;;;;;;5.10;4.32;;;;;;;8.55;37.69;101693.19;10303718;28;20405;-63
2022/02/27 18:53:33;;;;;;;7.43;3.75;;;;;;;8.27;38.12;101673.28;10303170;28;20050;-63
2022/02/27 18:58:35;;;;;;;6.68;4.65;;;;;;;8.46;37.83;101691.84;10301858;28;20058;-62
2022/02/27 19:03:39;;;;;;;4.43;3.40;;;;;;;8.49;37.72;101687.25;10331414;28;20049;-63
2022/02/27 19:08:40;;;;;;;4.35;3.20;;;;;;;8.47;37.95;101699.75;10333410;28;20054;-64
2022/02/27 19:13:42;;;;;;;5.45;3.72;;;;;;;8.35;37.95;101697.66;10338057;28;20056;-63
2022/02/27 19:18:43;;;;;;;5.50;3.78;;;;;;;8.36;37.63;101698.50;10335399;28;20045;-63
2022/02/27 19:23:44;;;;;;;6.50;3.90;;;;;;;8.27;38.05;101690.06;10333504;28;20159;-63
2022/02/27 19:28:46;;;;;;;4.97;3.97;;;;;;;8.26;37.98;101700.75;10340708;28;20056;-63
2022/02/27 19:33:48;;;;;;;5.40;4.63;;;;;;;8.24;38.34;101707.91;10334753;28;20042;-62
2022/02/27 19:38:49;;;;;;;4.78;4.35;;;;;;;8.13;39.00;101693.34;10312173;28;20107;-62
2022/02/27 19:43:52;;;;;;;6.43;5.28;;;;;;;8.02;38.98;101657.69;10310256;28;20156;-62
2022/02/27 19:48:54;;;;;;;7.47;5.40;;;;;;;8.07;39.20;101677.72;10315379;28;20054;-63
2022/02/27 19:53:56;;;;;;;4.88;4.22;;;;;;;8.10;39.68;101688.19;10309386;28;20667;-62
2022/02/27 19:58:58;;;;;;;10.13;5.10;;;;;;;7.95;40.06;101697.72;10308400;28;20058;-61
2022/02/27 20:03:59;;;;;;;6.57;4.93;;;;;;;7.84;40.64;101694.72;10318916;28;20289;-62
2022/02/27 20:10:42;;;;;;;5.82;5.22;;;;;;;7.71;40.67;101683.81;10315095;28;20056;-62
2022/02/27 20:14:25;;;;;;;6.15;4.45;;;;;;;7.56;41.47;101692.47;10321461;28;20061;-60
2022/02/27 20:19:27;;;;;;;4.80;4.30;;;;;;;7.47;41.89;101675.19;10304794;28;20121;-62
2022/02/27 20:24:28;;;;;;;7.53;4.68;;;;;;;7.55;41.93;101693.38;10318470;28;20061;-62
2022/02/27 20:29:30;;;;;;;4.72;3.95;;;;;;;7.46;41.70;101697.34;10310172;28;20057;-64
2022/02/27 20:34:31;;;;;;;5.40;4.38;;;;;;;7.38;41.82;101705.59;10306818;28;20060;-66
2022/02/27 20:39:33;;;;;;;4.82;4.28;;;;;;;7.35;41.82;101697.78;10307380;28;20504;-65
2022/02/27 20:44:35;;;;;;;6.05;4.32;;;;;;;7.26;42.06;101679.66;10314130;28;20061;-60
2022/02/27 20:49:36;;;;;;;4.80;4.10;;;;;;;7.36;41.92;101696.00;10308208;28;20373;-61
2022/02/27 20:54:38;;;;;;;5.72;4.10;;;;;;;7.30;41.73;101696.28;10312412;28;20050;-61
2022/02/27 20:59:40;;;;;;;4.88;4.13;;;;;;;7.29;41.84;101697.19;10316481;28;20384;-60
2022/02/27 21:04:42;;;;;;;5.88;4.00;;;;;;;7.21;42.12;101686.94;10311766;28;20061;-62
2022/02/27 21:09:43;;;;;;;5.60;4.53;;;;;;;7.21;41.89;101681.66;10301602;28;20141;-61
2022/02/27 21:14:45;;;;;;;4.72;4.13;;;;;;;7.28;42.16;101701.66;10307366;28;20139;-61
2022/02/27 21:19:46;;;;;;;5.15;4.22;;;;;;;7.15;42.08;101698.66;10308315;28;20174;-62
2022/02/27 21:24:48;;;;;;;8.05;4.18;;;;;;;7.18;42.52;101705.63;10309192;28;20060;-61
2022/02/27 21:29:50;;;;;;;8.00;4.65;;;;;;;7.05;42.88;101702.63;10308709;28;20050;-58
2022/02/27 21:34:52;;;;;;;5.65;5.03;;;;;;;6.93;43.38;101711.94;10300880;28;20056;-60
2022/02/27 21:39:53;;;;;;;7.78;4.90;;;;;;;6.81;43.80;101715.09;10306102;28;20091;-60
2022/02/27 21:44:55;;;;;;;7.15;4.82;;;;;;;6.68;44.27;101710.31;10303333;28;20509;-60
2022/02/27 21:49:56;;;;;;;7.35;5.47;;;;;;;6.72;44.38;101726.94;10306751;28;20982;-60
2022/02/27 21:54:58;;;;;;;6.78;5.53;;;;;;;6.64;44.44;101727.25;10301644;28;20069;-60
2022/02/27 22:00:00;;;;;;;6.55;5.78;;;;;;;6.62;44.53;101729.09;10314554;28;20415;-61
2022/02/27 22:05:02;;;;;;;6.45;5.53;;;;;;;6.55;44.54;101724.97;10349794;28;20140;-61
2022/02/27 22:10:05;;;;;;;7.28;5.78;;;;;;;6.53;44.92;101732.09;10353996;28;20042;-61
2022/02/27 22:15:08;;;;;;;6.45;5.55;;;;;;;6.53;44.91;101740.03;10353389;28;20267;-61
2022/02/27 22:20:12;;;;;;;8.00;5.90;;;;;;;6.52;44.62;101733.88;10352450;28;20156;-61
2022/02/27 22:25:14;;;;;;;7.15;5.53;;;;;;;6.38;44.79;101728.31;10354540;28;20128;-61
2022/02/27 22:30:15;;;;;;;8.05;5.30;;;;;;;6.39;44.91;101734.44;10356646;28;20137;-61
2022/02/27 22:35:17;;;;;;;8.20;5.40;;;;;;;6.26;45.07;101728.75;10356983;28;20616;-61
2022/02/27 22:40:18;;;;;;;5.38;4.88;;;;;;;6.32;45.80;101739.09;10352160;28;20793;-61
2022/02/27 22:45:31;;;;;;;6.78;5.72;;;;;;;5.81;46.80;101748.91;10353844;28;20642;-62
2022/02/27 22:50:33;;;;;;;6.80;6.18;;;;;;;5.74;47.14;101736.84;10353094;28;20136;-61
2022/02/27 22:55:34;;;;;;;6.85;6.15;;;;;;;5.88;47.20;101734.53;10351411;28;20468;-61
2022/02/27 23:00:47;;;;;;;8.82;5.90;;;;;;;5.91;46.85;101742.34;10351712;28;20063;-61
2022/02/27 23:05:51;;;;;;;8.02;6.50;;;;;;;5.91;46.75;101739.72;10319570;28;20046;-61
2022/02/27 23:10:52;;;;;;;8.80;6.72;;;;;;;5.79;46.87;101734.91;10316498;28;20137;-61
2022/02/27 23:15:54;;;;;;;8.45;6.10;;;;;;;5.77;46.69;101731.47;10321959;28;20439;-61
2022/02/27 23:20:55;;;;;;;7.72;6.10;;;;;;;5.88;46.50;101737.19;10316742;28;20061;-61